sensor_id;sensor_type;location;lat;lon;timestamp;pressure;altitude;pressure_sealevel;temperature;humidity
33161;BME280;19522;45.656;11.302;2023-03-03T00:02:17;98385.75;;;4.33;91.13
33161;BME280;19522;45.656;11.302;2023-03-03T00:04:42;98343.53;;;3.97;91.69
33161;BME280;19522;45.656;11.302;2023-03-03T00:07:08;98336.38;;;3.78;92.77
33161;BME280;19522;45.656;11.302;2023-03-03T00:09:33;98396.63;;;4.13;93.33
33161;BME280;19522;45.656;11.302;2023-03-03T00:12:01;98402.03;;;4.03;93.77
33161;BME280;19522;45.656;11.302;2023-03-03T00:14:39;98396.22;;;4.08;93.87
33161;BME280;19522;45.656;11.302;2023-03-03T00:17:26;98390.75;;;3.90;95.04
33161;BME280;19522;45.656;11.302;2023-03-03T00:19:53;98393.81;;;4.05;94.44
33161;BME280;19522;45.656;11.302;2023-03-03T00:22:30;98399.53;;;3.92;95.07
33161;BME280;19522;45.656;11.302;2023-03-03T00:27:47;98369.13;;;3.54;96.05
33161;BME280;19522;45.656;11.302;2023-03-03T00:30:19;98394.53;;;3.69;96.56
33161;BME280;19522;45.656;11.302;2023-03-03T00:32:48;98394.38;;;3.61;97.29
33161;BME280;19522;45.656;11.302;2023-03-03T00:35:29;98392.28;;;3.55;96.89
33161;BME280;19522;45.656;11.302;2023-03-03T00:37:57;98389.28;;;3.68;96.41
33161;BME280;19522;45.656;11.302;2023-03-03T00:40:32;98391.09;;;3.77;95.47
33161;BME280;19522;45.656;11.302;2023-03-03T00:43:00;98389.41;;;3.76;95.82
33161;BME280;19522;45.656;11.302;2023-03-03T00:50:45;98368.63;;;3.78;93.89
33161;BME280;19522;45.656;11.302;2023-03-03T00:53:13;98348.16;;;3.67;94.39
33161;BME280;19522;45.656;11.302;2023-03-03T00:55:42;98375.97;;;3.76;94.96
33161;BME280;19522;45.656;11.302;2023-03-03T00:58:08;98368.34;;;3.71;95.62
33161;BME280;19522;45.656;11.302;2023-03-03T01:00:34;98378.47;;;3.87;95.14
33161;BME280;19522;45.656;11.302;2023-03-03T01:03:05;98378.03;;;3.92;94.98
33161;BME280;19522;45.656;11.302;2023-03-03T01:05:31;98374.63;;;4.00;94.42
33161;BME280;19522;45.656;11.302;2023-03-03T01:07:57;98303.97;;;3.52;94.76
33161;BME280;19522;45.656;11.302;2023-03-03T01:10:23;98376.22;;;3.93;94.75
33161;BME280;19522;45.656;11.302;2023-03-03T01:12:49;98352.00;;;3.65;95.83
33161;BME280;19522;45.656;11.302;2023-03-03T01:15:14;98364.56;;;3.64;96.91
33161;BME280;19522;45.656;11.302;2023-03-03T01:17:41;98360.22;;;3.53;96.88
33161;BME280;19522;45.656;11.302;2023-03-03T01:20:08;98351.31;;;3.53;96.69
33161;BME280;19522;45.656;11.302;2023-03-03T01:22:34;98334.81;;;3.48;96.35
33161;BME280;19522;45.656;11.302;2023-03-03T01:25:00;98343.25;;;3.53;96.69
33161;BME280;19522;45.656;11.302;2023-03-03T01:27:28;98357.03;;;3.78;95.80
33161;BME280;19522;45.656;11.302;2023-03-03T01:29:54;98354.47;;;3.76;95.42
33161;BME280;19522;45.656;11.302;2023-03-03T01:32:21;98350.97;;;3.76;94.48
33161;BME280;19522;45.656;11.302;2023-03-03T01:34:47;98351.84;;;3.66;95.80
33161;BME280;19522;45.656;11.302;2023-03-03T01:37:12;98335.47;;;3.59;95.85
33161;BME280;19522;45.656;11.302;2023-03-03T01:39:38;98355.22;;;3.68;95.58
33161;BME280;19522;45.656;11.302;2023-03-03T01:42:03;98339.59;;;3.82;94.26
33161;BME280;19522;45.656;11.302;2023-03-03T01:44:29;98339.78;;;3.70;94.09
33161;BME280;19522;45.656;11.302;2023-03-03T01:47:05;98344.81;;;3.55;95.42
33161;BME280;19522;45.656;11.302;2023-03-03T01:49:57;98333.03;;;3.66;95.54
33161;BME280;19522;45.656;11.302;2023-03-03T01:52:27;98311.78;;;3.35;96.61
33161;BME280;19522;45.656;11.302;2023-03-03T01:55:02;98312.88;;;3.52;95.58
33161;BME280;19522;45.656;11.302;2023-03-03T01:57:32;98330.63;;;3.63;95.17
33161;BME280;19522;45.656;11.302;2023-03-03T02:00:01;98316.16;;;3.46;96.04
33161;BME280;19522;45.656;11.302;2023-03-03T02:02:28;98313.59;;;3.45;96.30
33161;BME280;19522;45.656;11.302;2023-03-03T02:04:54;98314.03;;;3.50;96.03
33161;BME280;19522;45.656;11.302;2023-03-03T02:07:21;98314.47;;;3.45;95.75
33161;BME280;19522;45.656;11.302;2023-03-03T02:12:30;98299.09;;;3.27;95.81
33161;BME280;19522;45.656;11.302;2023-03-03T02:14:56;98312.81;;;3.24;96.44
33161;BME280;19522;45.656;11.302;2023-03-03T02:17:22;98290.41;;;3.06;96.93
33161;BME280;19522;45.656;11.302;2023-03-03T02:20:00;98296.16;;;3.11;97.00
33161;BME280;19522;45.656;11.302;2023-03-03T02:25:11;98295.13;;;3.32;96.12
33161;BME280;19522;45.656;11.302;2023-03-03T02:27:39;98294.75;;;3.26;96.67
33161;BME280;19522;45.656;11.302;2023-03-03T02:30:13;98286.69;;;3.17;97.12
33161;BME280;19522;45.656;11.302;2023-03-03T02:32:39;98290.41;;;2.96;98.19
33161;BME280;19522;45.656;11.302;2023-03-03T02:35:25;98281.22;;;3.08;98.73
33161;BME280;19522;45.656;11.302;2023-03-03T02:37:51;98263.69;;;3.04;97.72
33161;BME280;19522;45.656;11.302;2023-03-03T02:40:20;98264.41;;;3.16;97.33
33161;BME280;19522;45.656;11.302;2023-03-03T02:42:51;98270.88;;;3.14;97.51
33161;BME280;19522;45.656;11.302;2023-03-03T02:45:17;98271.47;;;3.07;98.66
33161;BME280;19522;45.656;11.302;2023-03-03T02:47:49;98266.09;;;3.07;98.51
33161;BME280;19522;45.656;11.302;2023-03-03T02:50:15;98267.25;;;3.05;98.66
33161;BME280;19522;45.656;11.302;2023-03-03T02:52:40;98259.91;;;3.07;98.39
33161;BME280;19522;45.656;11.302;2023-03-03T02:55:06;98262.44;;;3.08;98.02
33161;BME280;19522;45.656;11.302;2023-03-03T02:57:32;98259.63;;;3.00;98.25
33161;BME280;19522;45.656;11.302;2023-03-03T02:59:58;98261.72;;;3.06;98.65
33161;BME280;19522;45.656;11.302;2023-03-03T03:02:23;98259.19;;;2.95;99.71
33161;BME280;19522;45.656;11.302;2023-03-03T03:04:48;98254.78;;;3.14;98.80
33161;BME280;19522;45.656;11.302;2023-03-03T03:07:14;98250.28;;;3.14;98.04
33161;BME280;19522;45.656;11.302;2023-03-03T03:09:39;98258.16;;;3.16;97.61
33161;BME280;19522;45.656;11.302;2023-03-03T03:12:05;98253.69;;;3.06;98.24
33161;BME280;19522;45.656;11.302;2023-03-03T03:14:30;98248.69;;;3.21;97.53
33161;BME280;19522;45.656;11.302;2023-03-03T03:16:56;98246.44;;;3.17;97.19
33161;BME280;19522;45.656;11.302;2023-03-03T03:19:21;98236.69;;;3.16;97.17
33161;BME280;19522;45.656;11.302;2023-03-03T03:21:47;98220.97;;;2.93;97.54
33161;BME280;19522;45.656;11.302;2023-03-03T03:24:12;98232.09;;;2.98;97.76
33161;BME280;19522;45.656;11.302;2023-03-03T03:26:38;98240.72;;;2.92;98.08
33161;BME280;19522;45.656;11.302;2023-03-03T03:29:03;98211.97;;;2.64;98.68
33161;BME280;19522;45.656;11.302;2023-03-03T03:31:29;98249.63;;;2.92;99.02
33161;BME280;19522;45.656;11.302;2023-03-03T03:33:54;98251.41;;;3.11;97.62
33161;BME280;19522;45.656;11.302;2023-03-03T03:36:20;98238.91;;;2.83;97.38
33161;BME280;19522;45.656;11.302;2023-03-03T03:38:46;98220.97;;;2.93;97.68
33161;BME280;19522;45.656;11.302;2023-03-03T03:41:11;98251.53;;;3.10;96.72
33161;BME280;19522;45.656;11.302;2023-03-03T03:43:38;98225.78;;;2.79;97.11
33161;BME280;19522;45.656;11.302;2023-03-03T03:46:04;98244.97;;;2.94;97.89
33161;BME280;19522;45.656;11.302;2023-03-03T03:48:29;98244.91;;;3.04;97.43
33161;BME280;19522;45.656;11.302;2023-03-03T03:50:55;98251.09;;;3.15;96.55
33161;BME280;19522;45.656;11.302;2023-03-03T03:53:20;98241.78;;;3.19;96.35
33161;BME280;19522;45.656;11.302;2023-03-03T03:55:46;98221.66;;;2.95;95.78
33161;BME280;19522;45.656;11.302;2023-03-03T03:58:16;98231.00;;;3.28;94.73
33161;BME280;19522;45.656;11.302;2023-03-03T04:00:43;98227.03;;;3.33;93.37
33161;BME280;19522;45.656;11.302;2023-03-03T04:03:09;98235.53;;;3.28;93.88
33161;BME280;19522;45.656;11.302;2023-03-03T04:05:35;98239.03;;;3.38;93.50
33161;BME280;19522;45.656;11.302;2023-03-03T04:08:01;98232.44;;;3.23;93.99
33161;BME280;19522;45.656;11.302;2023-03-03T04:10:27;98235.31;;;3.11;94.80
33161;BME280;19522;45.656;11.302;2023-03-03T04:12:52;98162.88;;;2.64;95.35
33161;BME280;19522;45.656;11.302;2023-03-03T04:15:18;98238.88;;;3.02;95.24
33161;BME280;19522;45.656;11.302;2023-03-03T04:17:43;98240.97;;;3.08;95.55
33161;BME280;19522;45.656;11.302;2023-03-03T04:20:12;98233.19;;;3.15;94.41
33161;BME280;19522;45.656;11.302;2023-03-03T04:22:38;98232.75;;;3.20;93.15
33161;BME280;19522;45.656;11.302;2023-03-03T04:25:05;98236.34;;;2.91;93.92
33161;BME280;19522;45.656;11.302;2023-03-03T04:27:31;98210.28;;;2.63;95.56
33161;BME280;19522;45.656;11.302;2023-03-03T04:29:57;98225.13;;;2.68;96.30
33161;BME280;19522;45.656;11.302;2023-03-03T04:32:23;98236.78;;;2.86;95.85
33161;BME280;19522;45.656;11.302;2023-03-03T04:34:48;98232.81;;;3.00;94.43
33161;BME280;19522;45.656;11.302;2023-03-03T04:37:14;98226.34;;;2.93;94.73
33161;BME280;19522;45.656;11.302;2023-03-03T04:39:39;98224.09;;;2.88;95.46
33161;BME280;19522;45.656;11.302;2023-03-03T04:42:05;98226.66;;;2.70;95.85
33161;BME280;19522;45.656;11.302;2023-03-03T04:44:30;98220.41;;;2.79;96.26
33161;BME280;19522;45.656;11.302;2023-03-03T04:46:56;98176.84;;;2.58;95.31
33161;BME280;19522;45.656;11.302;2023-03-03T04:49:21;98227.50;;;2.71;96.00
33161;BME280;19522;45.656;11.302;2023-03-03T04:51:47;98150.94;;;2.29;96.59
33161;BME280;19522;45.656;11.302;2023-03-03T04:54:12;98204.53;;;2.58;96.83
33161;BME280;19522;45.656;11.302;2023-03-03T04:56:38;98224.66;;;2.82;96.11
33161;BME280;19522;45.656;11.302;2023-03-03T04:59:04;98204.78;;;2.75;95.25
33161;BME280;19522;45.656;11.302;2023-03-03T05:01:29;98213.03;;;2.91;95.50
33161;BME280;19522;45.656;11.302;2023-03-03T05:03:55;98213.91;;;2.92;94.81
33161;BME280;19522;45.656;11.302;2023-03-03T05:06:21;98212.09;;;2.83;95.63
33161;BME280;19522;45.656;11.302;2023-03-03T05:08:46;98217.59;;;2.81;95.97
33161;BME280;19522;45.656;11.302;2023-03-03T05:11:12;98204.66;;;2.67;96.24
33161;BME280;19522;45.656;11.302;2023-03-03T05:13:38;98160.94;;;2.37;96.64
33161;BME280;19522;45.656;11.302;2023-03-03T05:16:04;98212.97;;;2.73;97.02
33161;BME280;19522;45.656;11.302;2023-03-03T05:18:30;98212.81;;;2.65;97.21
33161;BME280;19522;45.656;11.302;2023-03-03T05:20:55;98217.91;;;2.48;98.42
33161;BME280;19522;45.656;11.302;2023-03-03T05:23:39;98221.91;;;2.44;99.41
33161;BME280;19522;45.656;11.302;2023-03-03T05:26:05;98196.47;;;2.48;98.20
33161;BME280;19522;45.656;11.302;2023-03-03T05:28:32;98223.41;;;2.67;96.88
33161;BME280;19522;45.656;11.302;2023-03-03T05:30:57;98225.22;;;2.66;97.11
33161;BME280;19522;45.656;11.302;2023-03-03T05:33:23;98220.47;;;2.60;97.36
33161;BME280;19522;45.656;11.302;2023-03-03T05:35:53;98212.72;;;2.47;97.96
33161;BME280;19522;45.656;11.302;2023-03-03T05:38:19;98224.41;;;2.56;98.25
33161;BME280;19522;45.656;11.302;2023-03-03T05:40:46;98232.72;;;2.72;97.84
33161;BME280;19522;45.656;11.302;2023-03-03T05:43:11;98223.53;;;2.65;97.20
33161;BME280;19522;45.656;11.302;2023-03-03T05:45:37;98217.06;;;2.68;97.43
33161;BME280;19522;45.656;11.302;2023-03-03T05:48:03;98230.59;;;2.76;97.05
33161;BME280;19522;45.656;11.302;2023-03-03T05:50:29;98215.81;;;2.62;97.58
33161;BME280;19522;45.656;11.302;2023-03-03T05:52:55;98234.41;;;2.63;98.29
33161;BME280;19522;45.656;11.302;2023-03-03T05:55:21;98228.63;;;2.78;97.67
33161;BME280;19522;45.656;11.302;2023-03-03T05:57:46;98235.38;;;2.92;96.04
33161;BME280;19522;45.656;11.302;2023-03-03T06:00:12;98242.44;;;2.93;95.25
33161;BME280;19522;45.656;11.302;2023-03-03T06:02:38;98223.38;;;2.76;95.58
33161;BME280;19522;45.656;11.302;2023-03-03T06:05:04;98240.47;;;2.75;96.28
33161;BME280;19522;45.656;11.302;2023-03-03T06:07:30;98217.66;;;2.52;96.93
33161;BME280;19522;45.656;11.302;2023-03-03T06:09:56;98243.56;;;2.80;96.71
33161;BME280;19522;45.656;11.302;2023-03-03T06:12:21;98219.28;;;2.82;94.41
33161;BME280;19522;45.656;11.302;2023-03-03T06:14:47;98209.69;;;2.70;94.40
33161;BME280;19522;45.656;11.302;2023-03-03T06:17:12;98242.16;;;2.86;94.47
33161;BME280;19522;45.656;11.302;2023-03-03T06:19:38;98219.88;;;2.66;94.05
33161;BME280;19522;45.656;11.302;2023-03-03T06:22:05;98245.00;;;2.75;95.10
33161;BME280;19522;45.656;11.302;2023-03-03T06:24:31;98244.28;;;2.73;95.87
33161;BME280;19522;45.656;11.302;2023-03-03T06:26:57;98244.16;;;2.64;96.97
33161;BME280;19522;45.656;11.302;2023-03-03T06:29:23;98220.75;;;2.47;97.81
33161;BME280;19522;45.656;11.302;2023-03-03T06:31:49;98228.66;;;2.48;98.16
33161;BME280;19522;45.656;11.302;2023-03-03T06:34:14;98232.75;;;2.53;98.51
33161;BME280;19522;45.656;11.302;2023-03-03T06:36:40;98231.03;;;2.71;97.76
33161;BME280;19522;45.656;11.302;2023-03-03T06:39:05;98255.78;;;3.13;95.67
33161;BME280;19522;45.656;11.302;2023-03-03T06:41:31;98263.09;;;3.20;95.16
33161;BME280;19522;45.656;11.302;2023-03-03T06:43:56;98233.78;;;2.99;95.40
33161;BME280;19522;45.656;11.302;2023-03-03T06:46:24;98232.56;;;2.84;96.24
33161;BME280;19522;45.656;11.302;2023-03-03T06:48:50;98259.75;;;2.99;97.47
33161;BME280;19522;45.656;11.302;2023-03-03T06:51:33;98261.44;;;3.00;98.01
33161;BME280;19522;45.656;11.302;2023-03-03T06:54:01;98267.22;;;3.15;97.64
33161;BME280;19522;45.656;11.302;2023-03-03T06:56:35;98254.16;;;3.30;96.48
33161;BME280;19522;45.656;11.302;2023-03-03T06:59:04;98264.38;;;3.54;94.92
33161;BME280;19522;45.656;11.302;2023-03-03T07:01:34;98255.69;;;3.70;94.16
33161;BME280;19522;45.656;11.302;2023-03-03T07:04:00;98238.13;;;3.76;93.07
33161;BME280;19522;45.656;11.302;2023-03-03T07:06:27;98258.19;;;3.81;93.28
33161;BME280;19522;45.656;11.302;2023-03-03T07:08:54;98253.97;;;3.79;93.47
33161;BME280;19522;45.656;11.302;2023-03-03T07:11:22;98259.44;;;4.05;93.10
33161;BME280;19522;45.656;11.302;2023-03-03T07:13:53;98259.84;;;4.10;92.68
33161;BME280;19522;45.656;11.302;2023-03-03T07:16:24;98246.69;;;3.89;93.49
33161;BME280;19522;45.656;11.302;2023-03-03T07:18:56;98256.53;;;3.98;94.60
33161;BME280;19522;45.656;11.302;2023-03-03T07:23:50;98242.47;;;4.04;94.18
33161;BME280;19522;45.656;11.302;2023-03-03T07:26:25;98264.09;;;4.31;93.69
33161;BME280;19522;45.656;11.302;2023-03-03T07:31:45;98261.78;;;4.54;92.73
33161;BME280;19522;45.656;11.302;2023-03-03T07:34:42;98266.75;;;4.85;91.90
33161;BME280;19522;45.656;11.302;2023-03-03T07:37:35;98269.91;;;5.07;91.52
33161;BME280;19522;45.656;11.302;2023-03-03T07:42:49;98236.09;;;5.30;89.56
33161;BME280;19522;45.656;11.302;2023-03-03T07:45:32;98264.97;;;5.46;89.46
33161;BME280;19522;45.656;11.302;2023-03-03T07:48:29;98278.25;;;5.48;90.12
33161;BME280;19522;45.656;11.302;2023-03-03T07:50:57;98211.97;;;5.21;89.59
33161;BME280;19522;45.656;11.302;2023-03-03T07:53:31;98279.53;;;5.70;88.72
33161;BME280;19522;45.656;11.302;2023-03-03T07:55:59;98274.59;;;5.92;86.24
33161;BME280;19522;45.656;11.302;2023-03-03T07:58:38;98280.22;;;6.07;85.71
33161;BME280;19522;45.656;11.302;2023-03-03T08:03:42;98284.19;;;6.37;84.15
33161;BME280;19522;45.656;11.302;2023-03-03T08:14:29;98286.91;;;7.28;78.98
33161;BME280;19522;45.656;11.302;2023-03-03T08:16:56;98285.28;;;7.67;78.52
33161;BME280;19522;45.656;11.302;2023-03-03T08:19:23;98290.19;;;8.11;76.88
33161;BME280;19522;45.656;11.302;2023-03-03T08:21:48;98267.75;;;8.34;74.18
33161;BME280;19522;45.656;11.302;2023-03-03T08:24:14;98255.31;;;8.71;71.49
33161;BME280;19522;45.656;11.302;2023-03-03T08:26:39;98282.59;;;9.31;69.78
33161;BME280;19522;45.656;11.302;2023-03-03T08:29:05;98287.13;;;9.69;67.55
33161;BME280;19522;45.656;11.302;2023-03-03T08:31:31;98288.75;;;10.15;65.76
33161;BME280;19522;45.656;11.302;2023-03-03T08:33:56;98284.34;;;10.66;63.87
33161;BME280;19522;45.656;11.302;2023-03-03T08:36:23;98281.50;;;11.17;61.77
33161;BME280;19522;45.656;11.302;2023-03-03T08:38:49;98266.91;;;11.53;59.38
33161;BME280;19522;45.656;11.302;2023-03-03T08:41:15;98284.63;;;12.06;57.65
33161;BME280;19522;45.656;11.302;2023-03-03T08:43:41;98253.00;;;12.12;56.67
33161;BME280;19522;45.656;11.302;2023-03-03T08:46:09;98283.69;;;12.41;55.78
33161;BME280;19522;45.656;11.302;2023-03-03T08:48:36;98278.47;;;12.46;55.56
33161;BME280;19522;45.656;11.302;2023-03-03T08:51:02;98281.59;;;12.43;55.97
33161;BME280;19522;45.656;11.302;2023-03-03T08:53:27;98285.38;;;12.42;55.66
33161;BME280;19522;45.656;11.302;2023-03-03T08:55:53;98270.03;;;12.27;55.40
33161;BME280;19522;45.656;11.302;2023-03-03T08:58:20;98262.84;;;12.06;55.75
33161;BME280;19522;45.656;11.302;2023-03-03T09:00:46;98270.75;;;12.01;56.04
33161;BME280;19522;45.656;11.302;2023-03-03T09:03:11;98274.72;;;11.98;56.13
33161;BME280;19522;45.656;11.302;2023-03-03T09:05:38;98285.75;;;11.90;56.19
33161;BME280;19522;45.656;11.302;2023-03-03T09:08:05;98288.03;;;11.87;56.99
33161;BME280;19522;45.656;11.302;2023-03-03T09:10:32;98291.00;;;11.92;56.86
33161;BME280;19522;45.656;11.302;2023-03-03T09:13:03;98288.78;;;12.02;55.65
33161;BME280;19522;45.656;11.302;2023-03-03T09:15:33;98286.47;;;12.06;55.91
33161;BME280;19522;45.656;11.302;2023-03-03T09:18:09;98284.00;;;12.11;55.10
33161;BME280;19522;45.656;11.302;2023-03-03T09:20:45;98284.75;;;11.98;53.69
33161;BME280;19522;45.656;11.302;2023-03-03T09:23:34;98288.47;;;11.90;54.27
33161;BME280;19522;45.656;11.302;2023-03-03T09:28:52;98282.19;;;12.25;55.57
33161;BME280;19522;45.656;11.302;2023-03-03T09:31:42;98266.50;;;11.92;54.31
33161;BME280;19522;45.656;11.302;2023-03-03T09:34:23;98285.28;;;12.15;53.30
33161;BME280;19522;45.656;11.302;2023-03-03T09:36:51;98279.94;;;11.08;55.07
33161;BME280;19522;45.656;11.302;2023-03-03T09:39:23;98283.84;;;11.20;56.37
33161;BME280;19522;45.656;11.302;2023-03-03T09:50:43;98293.41;;;10.95;54.71
33161;BME280;19522;45.656;11.302;2023-03-03T09:53:26;98297.53;;;10.47;56.47
33161;BME280;19522;45.656;11.302;2023-03-03T09:56:08;98290.97;;;10.78;56.29
33161;BME280;19522;45.656;11.302;2023-03-03T09:58:52;98296.53;;;10.70;56.99
33161;BME280;19522;45.656;11.302;2023-03-03T10:01:39;98296.78;;;10.97;57.10
33161;BME280;19522;45.656;11.302;2023-03-03T10:10:16;98288.72;;;11.32;56.00
33161;BME280;19522;45.656;11.302;2023-03-03T10:13:07;98288.56;;;11.40;56.38
33161;BME280;19522;45.656;11.302;2023-03-03T10:18:37;98269.03;;;10.80;54.17
33161;BME280;19522;45.656;11.302;2023-03-03T10:29:47;98300.16;;;11.27;53.21
33161;BME280;19522;45.656;11.302;2023-03-03T10:32:48;98302.06;;;10.83;56.05
33161;BME280;19522;45.656;11.302;2023-03-03T10:35:42;98298.56;;;11.11;55.04
33161;BME280;19522;45.656;11.302;2023-03-03T10:43:52;98299.66;;;11.74;53.73
33161;BME280;19522;45.656;11.302;2023-03-03T10:51:30;98310.03;;;11.57;54.54
33161;BME280;19522;45.656;11.302;2023-03-03T10:56:54;98308.28;;;11.49;55.54
33161;BME280;19522;45.656;11.302;2023-03-03T11:02:21;98314.50;;;11.71;56.31
33161;BME280;19522;45.656;11.302;2023-03-03T11:07:35;98313.00;;;11.33;57.68
33161;BME280;19522;45.656;11.302;2023-03-03T11:15:49;98285.78;;;11.05;58.86
33161;BME280;19522;45.656;11.302;2023-03-03T11:23:37;98304.66;;;11.63;58.12
33161;BME280;19522;45.656;11.302;2023-03-03T11:29:26;98289.75;;;11.31;57.89
33161;BME280;19522;45.656;11.302;2023-03-03T11:34:44;98297.78;;;11.39;59.22
33161;BME280;19522;45.656;11.302;2023-03-03T11:37:24;98299.28;;;11.20;59.32
33161;BME280;19522;45.656;11.302;2023-03-03T11:39:54;98293.63;;;11.21;61.59
33161;BME280;19522;45.656;11.302;2023-03-03T11:42:33;98296.13;;;11.16;61.13
33161;BME280;19522;45.656;11.302;2023-03-03T11:45:20;98293.53;;;11.30;61.96
33161;BME280;19522;45.656;11.302;2023-03-03T11:50:22;98293.44;;;11.51;60.97
33161;BME280;19522;45.656;11.302;2023-03-03T11:55:34;98283.13;;;11.40;60.92
33161;BME280;19522;45.656;11.302;2023-03-03T11:58:18;98278.31;;;11.42;59.47
33161;BME280;19522;45.656;11.302;2023-03-03T12:01:00;98279.03;;;11.51;58.46
33161;BME280;19522;45.656;11.302;2023-03-03T12:03:33;98281.59;;;11.31;58.95
33161;BME280;19522;45.656;11.302;2023-03-03T12:09:01;98285.59;;;11.63;59.89
33161;BME280;19522;45.656;11.302;2023-03-03T12:11:31;98288.88;;;11.87;58.59
33161;BME280;19522;45.656;11.302;2023-03-03T12:20:12;98266.13;;;11.31;59.79
33161;BME280;19522;45.656;11.302;2023-03-03T12:25:48;98265.16;;;11.39;57.82
33161;BME280;19522;45.656;11.302;2023-03-03T12:28:37;98292.09;;;11.69;56.97
33161;BME280;19522;45.656;11.302;2023-03-03T12:33:56;98279.22;;;12.20;57.60
33161;BME280;19522;45.656;11.302;2023-03-03T12:41:51;98264.75;;;13.62;52.77
33161;BME280;19522;45.656;11.302;2023-03-03T12:44:25;98264.34;;;13.45;52.26
33161;BME280;19522;45.656;11.302;2023-03-03T12:47:10;98265.16;;;13.52;51.67
33161;BME280;19522;45.656;11.302;2023-03-03T12:49:54;98268.94;;;13.24;51.03
33161;BME280;19522;45.656;11.302;2023-03-03T13:09:36;98260.56;;;13.59;46.51
33161;BME280;19522;45.656;11.302;2023-03-03T13:12:40;98256.00;;;14.05;43.53
33161;BME280;19522;45.656;11.302;2023-03-03T13:15:26;98218.72;;;14.38;41.56
33161;BME280;19522;45.656;11.302;2023-03-03T13:26:39;98257.19;;;13.70;42.47
33161;BME280;19522;45.656;11.302;2023-03-03T13:29:32;98254.22;;;13.79;41.60
33161;BME280;19522;45.656;11.302;2023-03-03T13:32:11;98245.44;;;14.22;42.35
33161;BME280;19522;45.656;11.302;2023-03-03T13:40:12;98238.06;;;15.25;38.78
33161;BME280;19522;45.656;11.302;2023-03-03T14:19:20;98232.63;;;14.61;39.77
33161;BME280;19522;45.656;11.302;2023-03-03T14:21:50;98233.06;;;14.97;39.23
33161;BME280;19522;45.656;11.302;2023-03-03T14:24:20;98232.34;;;15.34;40.23
33161;BME280;19522;45.656;11.302;2023-03-03T14:26:51;98230.72;;;15.70;37.58
33161;BME280;19522;45.656;11.302;2023-03-03T14:32:20;98233.06;;;15.66;37.55
33161;BME280;19522;45.656;11.302;2023-03-03T14:34:56;98230.97;;;14.60;38.37
33161;BME280;19522;45.656;11.302;2023-03-03T14:40:13;98228.34;;;14.79;38.71
33161;BME280;19522;45.656;11.302;2023-03-03T14:45:28;98186.38;;;14.28;37.88
33161;BME280;19522;45.656;11.302;2023-03-03T14:47:54;98239.00;;;14.55;38.15
33161;BME280;19522;45.656;11.302;2023-03-03T14:50:37;98237.31;;;14.54;38.96
33161;BME280;19522;45.656;11.302;2023-03-03T14:55:43;98238.81;;;14.43;39.58
33161;BME280;19522;45.656;11.302;2023-03-03T15:06:45;98243.97;;;14.26;40.88
33161;BME280;19522;45.656;11.302;2023-03-03T15:09:38;98231.34;;;14.32;39.22
33161;BME280;19522;45.656;11.302;2023-03-03T15:14:49;98218.41;;;14.14;39.92
33161;BME280;19522;45.656;11.302;2023-03-03T15:17:23;98226.97;;;14.24;39.32
33161;BME280;19522;45.656;11.302;2023-03-03T15:20:09;98222.81;;;14.15;38.90
33161;BME280;19522;45.656;11.302;2023-03-03T15:33:14;98220.28;;;14.52;39.74
33161;BME280;19522;45.656;11.302;2023-03-03T15:35:51;98203.91;;;14.52;40.29
33161;BME280;19522;45.656;11.302;2023-03-03T15:43:55;98208.38;;;14.78;39.39
33161;BME280;19522;45.656;11.302;2023-03-03T15:52:25;98215.91;;;14.06;40.89
33161;BME280;19522;45.656;11.302;2023-03-03T16:03:25;98213.13;;;13.60;44.95
33161;BME280;19522;45.656;11.302;2023-03-03T16:05:54;98210.81;;;13.57;43.66
33161;BME280;19522;45.656;11.302;2023-03-03T16:08:44;98195.72;;;13.34;42.99
33161;BME280;19522;45.656;11.302;2023-03-03T16:17:00;98224.03;;;13.33;44.00
33161;BME280;19522;45.656;11.302;2023-03-03T16:19:42;98230.34;;;13.47;44.94
33161;BME280;19522;45.656;11.302;2023-03-03T16:22:21;98231.19;;;13.54;44.98
33161;BME280;19522;45.656;11.302;2023-03-03T16:33:21;98248.00;;;12.98;47.88
33161;BME280;19522;45.656;11.302;2023-03-03T16:38:38;98230.56;;;12.78;48.55
33161;BME280;19522;45.656;11.302;2023-03-03T16:41:15;98248.16;;;12.76;48.21
33161;BME280;19522;45.656;11.302;2023-03-03T16:46:32;98263.38;;;12.37;50.49
33161;BME280;19522;45.656;11.302;2023-03-03T16:49:10;98269.19;;;12.27;50.19
33161;BME280;19522;45.656;11.302;2023-03-03T16:51:55;98271.63;;;12.08;50.53
33161;BME280;19522;45.656;11.302;2023-03-03T17:00:03;98279.16;;;11.71;53.44
33161;BME280;19522;45.656;11.302;2023-03-03T17:05:34;98288.69;;;11.25;54.78
33161;BME280;19522;45.656;11.302;2023-03-03T17:10:49;98281.97;;;10.99;55.75
33161;BME280;19522;45.656;11.302;2023-03-03T17:19:47;98309.50;;;10.53;57.57
33161;BME280;19522;45.656;11.302;2023-03-03T17:22:44;98310.97;;;10.55;58.17
33161;BME280;19522;45.656;11.302;2023-03-03T17:25:22;98312.97;;;10.47;59.26
33161;BME280;19522;45.656;11.302;2023-03-03T17:41:09;98331.03;;;9.49;61.41
33161;BME280;19522;45.656;11.302;2023-03-03T17:46:53;98340.84;;;9.50;61.69
33161;BME280;19522;45.656;11.302;2023-03-03T18:12:11;98362.66;;;8.64;64.84
33161;BME280;19522;45.656;11.302;2023-03-03T18:26:40;98381.63;;;8.16;67.28
33161;BME280;19522;45.656;11.302;2023-03-03T18:39:49;98372.72;;;7.99;66.77
33161;BME280;19522;45.656;11.302;2023-03-03T18:42:37;98378.66;;;7.94;66.74
33161;BME280;19522;45.656;11.302;2023-03-03T18:50:35;98378.38;;;7.73;66.80
33161;BME280;19522;45.656;11.302;2023-03-03T18:55:45;98404.56;;;7.64;67.73
33161;BME280;19522;45.656;11.302;2023-03-03T19:00:53;98407.78;;;7.51;68.81
33161;BME280;19522;45.656;11.302;2023-03-03T19:04:00;98392.06;;;7.46;68.70
33161;BME280;19522;45.656;11.302;2023-03-03T19:08:59;98391.06;;;7.39;67.83
33161;BME280;19522;45.656;11.302;2023-03-03T19:16:40;98432.59;;;7.46;68.89
33161;BME280;19522;45.656;11.302;2023-03-03T19:19:14;98426.19;;;7.47;68.47